Time;durP1;ratioP1;P1;durP2;ratioP2;P2;SDS_P1;SDS_P2;PMS_P1;PMS_P2;Temp;Humidity;BMP_temperature;BMP_pressure;BME280_temperature;BME280_humidity;BME280_pressure;Samples;Min_cycle;Max_cycle;Signal;HPM_P1;HPM_P2
2024/02/09 00:02:03;;;;;;;;;;;;;;;6.99;100.00;94117.81;10390140;28;19913;-77
2024/02/09 00:07:05;;;;;;;;;;;;;;;6.78;100.00;94119.66;10390014;28;20003;-79
2024/02/09 00:12:09;;;;;;;;;;;;;;;6.66;100.00;94123.38;10407055;28;20011;-80
2024/02/09 00:17:09;;;;;;;;;;;;;;;6.65;100.00;94123.63;10386919;28;19920;-78
2024/02/09 00:22:12;;;;;;;;;;;;;;;6.58;100.00;94123.09;10364290;28;20407;-78
2024/02/09 00:27:13;;;;;;;;;;;;;;;6.58;100.00;94136.44;10401037;22;19932;-85
2024/02/09 00:32:14;;;;;;;;;;;;;;;6.54;100.00;94117.47;10386791;28;19916;-82
2024/02/09 00:37:14;;;;;;;;;;;;;;;6.38;100.00;94135.31;10385751;28;20066;-83
2024/02/09 00:42:17;;;;;;;;;;;;;;;6.46;100.00;94139.31;10370067;28;19944;-83
2024/02/09 00:47:17;;;;;;;;;;;;;;;6.36;100.00;94129.41;10358761;28;19922;-84
2024/02/09 00:52:18;;;;;;;;;;;;;;;6.22;100.00;94128.28;10365123;28;19979;-84
2024/02/09 00:57:18;;;;;;;;;;;;;;;6.16;100.00;94116.78;10379099;28;20416;-84
2024/02/09 01:02:19;;;;;;;;;;;;;;;5.99;100.00;94128.44;10390536;28;19920;-82
2024/02/09 01:07:23;;;;;;;;;;;;;;;5.99;100.00;94115.13;10374638;28;20008;-84
2024/02/09 03:04:19;;;;;;;;;;;;;;;4.51;100.00;94136.84;10354072;28;19913;-87
2024/02/09 03:09:42;;;;;;;;;;;;;;;4.65;100.00;94150.56;10389937;28;19917;-87
2024/02/09 03:14:44;;;;;;;;;;;;;;;4.78;100.00;94160.03;10372908;28;20399;-87
2024/02/09 03:19:44;;;;;;;;;;;;;;;4.77;100.00;94166.38;10365966;28;20402;-87
2024/02/09 03:24:44;;;;;;;;;;;;;;;4.80;100.00;94171.25;10367502;28;19921;-87
2024/02/09 03:29:44;;;;;;;;;;;;;;;4.75;100.00;94169.31;10370842;28;19917;-85
2024/02/09 03:34:47;;;;;;;;;;;;;;;4.58;100.00;94164.06;10375228;28;19913;-84
2024/02/09 03:39:47;;;;;;;;;;;;;;;4.54;100.00;94170.94;10392196;28;19970;-85
2024/02/09 03:44:48;;;;;;;;;;;;;;;4.31;100.00;94172.00;10391710;28;20332;-83
2024/02/09 03:49:49;;;;;;;;;;;;;;;4.33;100.00;94177.88;10393158;28;19917;-82
2024/02/09 03:54:51;;;;;;;;;;;;;;;4.28;100.00;94185.78;10395701;28;19913;-85
2024/02/09 03:59:52;;;;;;;;;;;;;;;4.26;100.00;94177.28;10395777;28;19917;-83
2024/02/09 04:04:52;;;;;;;;;;;;;;;4.27;100.00;94186.88;10341872;28;19917;-83
2024/02/09 04:09:52;;;;;;;;;;;;;;;4.36;100.00;94187.25;10397517;28;20279;-84
2024/02/09 04:14:52;;;;;;;;;;;;;;;4.29;100.00;94200.72;10366304;28;19984;-85
2024/02/09 04:19:53;;;;;;;;;;;;;;;4.33;100.00;94206.34;10389530;28;19917;-85
2024/02/09 04:24:54;;;;;;;;;;;;;;;4.26;100.00;94210.00;10375581;28;20454;-85
2024/02/09 04:29:54;;;;;;;;;;;;;;;4.25;100.00;94212.91;10355800;28;19917;-86
2024/02/09 04:34:56;;;;;;;;;;;;;;;4.30;100.00;94215.63;10389647;28;19917;-86
2024/02/09 04:39:56;;;;;;;;;;;;;;;4.24;100.00;94221.91;10369439;28;20016;-86
2024/02/09 04:44:56;;;;;;;;;;;;;;;4.11;100.00;94226.53;10363571;28;20009;-87
2024/02/09 04:49:56;;;;;;;;;;;;;;;4.20;100.00;94234.91;10388508;28;20380;-85
2024/02/09 04:54:57;;;;;;;;;;;;;;;4.11;100.00;94242.50;10384465;28;20088;-85
2024/02/09 04:59:57;;;;;;;;;;;;;;;4.10;100.00;94242.75;10388274;28;20303;-84
2024/02/09 05:04:57;;;;;;;;;;;;;;;3.94;100.00;94237.22;10372552;28;19964;-85
2024/02/09 05:09:57;;;;;;;;;;;;;;;3.81;100.00;94234.91;10382237;28;20400;-86
2024/02/09 05:14:58;;;;;;;;;;;;;;;3.81;100.00;94231.41;10387911;28;19917;-86
2024/02/09 05:19:59;;;;;;;;;;;;;;;3.75;100.00;94251.81;10371496;28;20016;-85
2024/02/09 05:25:00;;;;;;;;;;;;;;;3.78;100.00;94237.22;10370668;28;20380;-78
2024/02/09 05:30:01;;;;;;;;;;;;;;;3.71;100.00;94238.22;10356954;28;20145;-77
2024/02/09 05:35:01;;;;;;;;;;;;;;;3.75;100.00;94228.69;10373372;28;19920;-77
2024/02/09 05:40:01;;;;;;;;;;;;;;;3.65;100.00;94220.56;10386583;28;20341;-78
2024/02/09 05:45:05;;;;;;;;;;;;;;;3.78;100.00;94211.44;10380459;28;19917;-77
2024/02/09 05:50:05;;;;;;;;;;;;;;;3.69;100.00;94213.72;10385642;28;19917;-77
2024/02/09 05:55:08;;;;;;;;;;;;;;;3.88;100.00;94208.94;10385939;28;19913;-78
2024/02/09 06:00:14;;;;;;;;;;;;;;;4.09;100.00;94203.94;10366593;28;19928;-79
2024/02/09 06:05:15;;;;;;;;;;;;;;;4.31;100.00;94200.47;10379263;28;19913;-78
2024/02/09 06:10:15;;;;;;;;;;;;;;;4.35;100.00;94209.56;10379311;28;19917;-79
2024/02/09 06:15:15;;;;;;;;;;;;;;;4.39;100.00;94200.03;10380741;28;19963;-78
2024/02/09 06:20:22;;;;;;;;;;;;;;;4.54;100.00;94212.72;10358281;28;19925;-79
2024/02/09 06:25:22;;;;;;;;;;;;;;;4.69;100.00;94210.25;10360071;28;19925;-79
2024/02/09 06:30:23;;;;;;;;;;;;;;;5.04;100.00;94213.53;10385325;28;20354;-77
2024/02/09 06:35:23;;;;;;;;;;;;;;;5.10;100.00;94217.84;10372971;28;20375;-78
2024/02/09 06:40:23;;;;;;;;;;;;;;;5.11;100.00;94222.13;10328208;28;19914;-78
2024/02/09 06:45:24;;;;;;;;;;;;;;;5.12;100.00;94235.19;10363706;28;19940;-78
2024/02/09 06:50:24;;;;;;;;;;;;;;;5.28;100.00;94238.81;10386756;28;20444;-79
2024/02/09 06:55:25;;;;;;;;;;;;;;;5.24;100.00;94237.69;10387107;28;20369;-79
2024/02/09 07:00:28;;;;;;;;;;;;;;;5.44;100.00;94247.75;10386520;28;20291;-77
2024/02/09 07:05:29;;;;;;;;;;;;;;;5.69;100.00;94234.91;10350353;28;19913;-79
2024/02/09 07:10:30;;;;;;;;;;;;;;;5.81;100.00;94240.84;10354221;28;20403;-79
2024/02/09 07:15:30;;;;;;;;;;;;;;;6.63;100.00;94237.91;10381132;28;20346;-79
2024/02/09 07:20:30;;;;;;;;;;;;;;;8.19;100.00;94261.94;10375296;28;20086;-78
2024/02/09 07:25:32;;;;;;;;;;;;;;;9.51;100.00;94243.00;10393475;28;19926;-78
2024/02/09 07:30:33;;;;;;;;;;;;;;;11.32;82.73;94236.69;10393348;28;20376;-79
2024/02/09 07:35:35;;;;;;;;;;;;;;;12.12;71.32;94232.25;10393414;28;19913;-78
2024/02/09 07:40:35;;;;;;;;;;;;;;;12.27;66.39;94201.56;10392225;28;19913;-79
2024/02/09 07:45:35;;;;;;;;;;;;;;;12.51;63.85;94207.91;10352245;28;20339;-80
2024/02/09 07:50:40;;;;;;;;;;;;;;;12.22;66.11;94214.34;10375785;28;20027;-80
2024/02/09 07:55:41;;;;;;;;;;;;;;;13.42;62.08;94209.84;10392629;28;20348;-78
2024/02/09 08:00:41;;;;;;;;;;;;;;;14.06;56.82;94211.63;10388260;28;19913;-80
2024/02/09 08:05:41;;;;;;;;;;;;;;;13.65;57.12;94209.91;10370438;28;19929;-78
2024/02/09 08:10:41;;;;;;;;;;;;;;;14.35;54.39;94197.66;10388324;28;20261;-79
2024/02/09 08:15:42;;;;;;;;;;;;;;;14.69;52.24;94184.63;10368221;28;20011;-79
2024/02/09 08:20:42;;;;;;;;;;;;;;;15.66;49.17;94183.72;10386876;28;19971;-80
2024/02/09 08:25:43;;;;;;;;;;;;;;;16.26;46.96;94188.63;10386737;28;19961;-79
2024/02/09 08:30:43;;;;;;;;;;;;;;;15.78;48.24;94184.97;10387107;28;19918;-79
2024/02/09 08:35:44;;;;;;;;;;;;;;;16.00;47.54;94157.72;10357553;28;19917;-78
2024/02/09 08:40:44;;;;;;;;;;;;;;;16.49;45.83;94148.50;10380809;28;19960;-79
2024/02/09 08:45:45;;;;;;;;;;;;;;;16.28;45.44;94156.56;10390139;28;20023;-79
2024/02/09 08:50:45;;;;;;;;;;;;;;;13.94;50.37;94141.97;10390448;28;19924;-79
2024/02/09 08:55:46;;;;;;;;;;;;;;;13.59;52.12;94159.81;10389261;28;20410;-79
2024/02/09 09:00:46;;;;;;;;;;;;;;;12.91;56.68;94167.78;10390537;28;19913;-79
2024/02/09 09:05:47;;;;;;;;;;;;;;;13.30;55.69;94152.91;10391521;28;19913;-79
2024/02/09 09:10:47;;;;;;;;;;;;;;;13.66;54.01;94160.19;10365705;28;19917;-79
2024/02/09 09:15:48;;;;;;;;;;;;;;;14.09;53.50;94156.97;10378135;28;19935;-80
2024/02/09 09:20:48;;;;;;;;;;;;;;;14.49;51.93;94162.41;10367440;28;19913;-79
2024/02/09 09:25:48;;;;;;;;;;;;;;;15.03;50.29;94156.09;10384665;28;19983;-79
2024/02/09 09:30:48;;;;;;;;;;;;;;;15.26;48.62;94153.25;10383214;28;19960;-80
2024/02/09 09:35:49;;;;;;;;;;;;;;;15.24;48.79;94144.66;10384934;28;20397;-79
2024/02/09 09:40:52;;;;;;;;;;;;;;;15.09;49.04;94144.00;10384882;28;19921;-79
2024/02/09 09:45:56;;;;;;;;;;;;;;;15.38;49.20;94134.50;10376690;28;20054;-79
2024/02/09 09:50:56;;;;;;;;;;;;;;;15.78;47.64;94120.78;10379844;28;19917;-80
2024/02/09 09:55:58;;;;;;;;;;;;;;;17.53;43.73;94119.97;10381497;28;20296;-81
2024/02/09 10:01:01;;;;;;;;;;;;;;;20.17;38.64;94104.56;10366184;28;19953;-80
2024/02/09 10:06:02;;;;;;;;;;;;;;;22.27;35.28;94082.63;10364695;28;19927;-79
2024/02/09 10:11:02;;;;;;;;;;;;;;;22.61;33.04;94067.22;10383739;28;19924;-80
2024/02/09 10:16:03;;;;;;;;;;;;;;;22.59;32.76;94068.72;10383691;28;19921;-79
2024/02/09 10:21:06;;;;;;;;;;;;;;;22.57;32.50;94051.88;10383257;28;20394;-81
2024/02/09 10:26:07;;;;;;;;;;;;;;;23.34;32.00;94039.72;10382794;28;19940;-80
2024/02/09 10:31:08;;;;;;;;;;;;;;;24.05;30.13;94040.97;10362419;28;20008;-81
2024/02/09 10:36:11;;;;;;;;;;;;;;;23.65;30.45;94021.31;10380011;28;19963;-81
2024/02/09 10:41:12;;;;;;;;;;;;;;;22.63;31.64;93998.38;10375021;28;20400;-80
2024/02/09 10:46:16;;;;;;;;;;;;;;;21.64;32.99;93991.59;10396389;28;20523;-80
2024/02/09 10:51:17;;;;;;;;;;;;;;;20.28;34.52;93998.41;10377694;28;19944;-80
2024/02/09 10:56:19;;;;;;;;;;;;;;;19.39;36.47;93986.75;10396078;28;20335;-79
2024/02/09 11:01:20;;;;;;;;;;;;;;;18.62;36.98;93966.66;10395942;28;19921;-79
2024/02/09 11:06:20;;;;;;;;;;;;;;;18.49;37.96;93954.19;10365115;28;19921;-79
2024/02/09 11:11:21;;;;;;;;;;;;;;;19.30;37.35;93940.59;10378275;28;19964;-80
2024/02/09 11:16:24;;;;;;;;;;;;;;;19.96;36.24;93933.75;10369199;28;19922;-81
2024/02/09 11:21:25;;;;;;;;;;;;;;;20.40;35.36;93915.63;10354685;28;19914;-82
2024/02/09 11:26:34;;;;;;;;;;;;;;;19.68;36.49;93909.25;10376831;28;19925;-80
2024/02/09 11:31:36;;;;;;;;;;;;;;;19.46;36.62;93913.38;10394825;28;19975;-80
2024/02/09 11:36:36;;;;;;;;;;;;;;;20.17;35.73;93920.97;10394315;28;20402;-80
2024/02/09 11:41:36;;;;;;;;;;;;;;;19.80;36.53;93911.13;10394253;28;19913;-80
2024/02/09 11:46:37;;;;;;;;;;;;;;;19.33;36.81;93922.78;10393815;28;19928;-80
2024/02/09 11:51:38;;;;;;;;;;;;;;;18.44;38.27;93928.03;10394005;28;19917;-81
2024/02/09 11:56:43;;;;;;;;;;;;;;;17.87;40.43;93933.22;10394267;28;19962;-80
2024/02/09 12:01:43;;;;;;;;;;;;;;;17.50;41.02;93925.03;10393818;28;20362;-81
2024/02/09 12:06:44;;;;;;;;;;;;;;;17.29;41.58;93913.44;10375436;28;19913;-81
2024/02/09 12:11:47;;;;;;;;;;;;;;;16.93;42.09;93910.28;10365532;28;20000;-80
2024/02/09 12:16:47;;;;;;;;;;;;;;;16.90;42.11;93905.53;10358283;28;20003;-80
2024/02/09 12:21:48;;;;;;;;;;;;;;;16.74;42.40;93899.88;10387269;28;20278;-81
2024/02/09 12:26:50;;;;;;;;;;;;;;;16.79;43.01;93907.84;10387018;28;19925;-81
2024/02/09 12:31:50;;;;;;;;;;;;;;;16.81;42.61;93893.94;10369037;28;20384;-81
2024/02/09 12:36:57;;;;;;;;;;;;;;;16.72;43.34;93902.94;10379438;28;20296;-81
2024/02/09 12:41:58;;;;;;;;;;;;;;;16.86;42.07;93891.00;10374190;28;19989;-80
2024/02/09 12:47:02;;;;;;;;;;;;;;;16.91;41.85;93897.06;10368869;28;19913;-80
2024/02/09 12:52:08;;;;;;;;;;;;;;;16.94;40.55;93892.06;10369143;28;20387;-81
2024/02/09 12:57:08;;;;;;;;;;;;;;;16.61;41.36;93890.13;10362064;28;19916;-81
2024/02/09 13:02:10;;;;;;;;;;;;;;;16.60;41.35;93877.69;10385525;28;19913;-81
2024/02/09 13:07:10;;;;;;;;;;;;;;;16.38;41.37;93888.53;10386333;28;19913;-81
2024/02/09 13:12:10;;;;;;;;;;;;;;;16.64;41.48;93878.59;10372682;28;20398;-80
2024/02/09 13:17:11;;;;;;;;;;;;;;;16.74;41.24;93889.03;10360191;28;20004;-80
2024/02/09 13:22:11;;;;;;;;;;;;;;;16.88;40.67;93888.75;10384143;28;19917;-81
2024/02/09 13:27:14;;;;;;;;;;;;;;;16.99;40.64;93892.66;10385814;28;20294;-79
2024/02/09 13:32:16;;;;;;;;;;;;;;;16.75;40.52;93885.19;10384806;28;20374;-79
2024/02/09 13:37:16;;;;;;;;;;;;;;;16.85;40.03;93887.50;10385208;28;20004;-80
2024/02/09 13:42:16;;;;;;;;;;;;;;;16.81;40.30;93886.56;10385483;28;20475;-80
2024/02/09 13:47:17;;;;;;;;;;;;;;;16.76;39.78;93878.66;10384227;28;20378;-80
2024/02/09 13:52:17;;;;;;;;;;;;;;;16.41;41.12;93878.94;10385071;28;20004;-80
2024/02/09 13:57:19;;;;;;;;;;;;;;;16.08;40.89;93889.72;10384714;28;20360;-80
2024/02/09 14:02:20;;;;;;;;;;;;;;;16.07;41.34;93894.31;10364869;28;19913;-79
2024/02/09 14:07:22;;;;;;;;;;;;;;;16.18;41.02;93889.31;10343763;28;19918;-82
2024/02/09 14:12:23;;;;;;;;;;;;;;;16.11;41.45;93897.97;10325656;28;20398;-81
2024/02/09 14:17:24;;;;;;;;;;;;;;;16.12;40.78;93891.44;10369657;28;19913;-81
2024/02/09 14:22:24;;;;;;;;;;;;;;;15.86;42.38;93889.66;10383201;28;20346;-81
2024/02/09 14:27:25;;;;;;;;;;;;;;;15.52;43.10;93880.53;10383001;28;19987;-80
2024/02/09 14:32:25;;;;;;;;;;;;;;;15.54;42.91;93880.22;10385413;28;20387;-79
2024/02/09 14:37:27;;;;;;;;;;;;;;;15.54;43.25;93886.44;10381491;28;20024;-81
2024/02/09 14:42:28;;;;;;;;;;;;;;;15.31;43.40;93880.47;10383048;28;19913;-79
2024/02/09 14:47:29;;;;;;;;;;;;;;;14.98;42.62;93889.16;10382284;28;19975;-80
2024/02/09 14:52:29;;;;;;;;;;;;;;;14.75;42.92;93896.69;10382505;28;19979;-81
2024/02/09 14:57:29;;;;;;;;;;;;;;;14.80;42.96;93901.91;10382248;28;19913;-79
2024/02/09 15:02:29;;;;;;;;;;;;;;;14.73;42.63;93887.28;10382951;28;20088;-79
2024/02/09 15:07:30;;;;;;;;;;;;;;;14.62;43.47;93878.69;10384514;28;19921;-80
2024/02/09 15:12:30;;;;;;;;;;;;;;;14.51;43.08;93886.31;10375476;28;20365;-79
2024/02/09 15:17:30;;;;;;;;;;;;;;;14.50;44.34;93882.03;10376392;28;20046;-80
2024/02/09 15:22:31;;;;;;;;;;;;;;;14.36;44.68;93874.09;10368546;28;20280;-79
2024/02/09 15:27:31;;;;;;;;;;;;;;;14.29;45.06;93884.56;10380815;28;19929;-80
2024/02/09 15:32:31;;;;;;;;;;;;;;;14.19;45.53;93872.97;10378414;28;20017;-80
2024/02/09 15:37:31;;;;;;;;;;;;;;;14.07;46.06;93878.19;10385897;28;19980;-78
2024/02/09 15:42:32;;;;;;;;;;;;;;;13.96;45.65;93876.91;10381656;28;20283;-80
2024/02/09 15:47:32;;;;;;;;;;;;;;;14.01;46.45;93888.34;10391206;28;20368;-80
2024/02/09 15:52:32;;;;;;;;;;;;;;;14.01;44.95;93888.34;10391032;28;19932;-79
2024/02/09 15:57:32;;;;;;;;;;;;;;;13.94;46.38;93884.50;10389173;28;19913;-79
2024/02/09 16:02:34;;;;;;;;;;;;;;;13.74;45.75;93896.72;10354484;28;19917;-78
2024/02/09 16:07:34;;;;;;;;;;;;;;;13.73;45.71;93895.94;10379253;28;19921;-78
2024/02/09 16:12:34;;;;;;;;;;;;;;;13.72;46.16;93897.03;10379390;28;19913;-79
2024/02/09 16:17:35;;;;;;;;;;;;;;;13.58;45.16;93893.66;10378758;28;19924;-80
2024/02/09 16:22:35;;;;;;;;;;;;;;;13.57;45.76;93894.75;10383711;28;20239;-79
2024/02/09 16:27:36;;;;;;;;;;;;;;;13.59;45.53;93903.31;10386284;28;20360;-79
2024/02/09 16:32:36;;;;;;;;;;;;;;;13.54;45.85;93915.06;10369388;28;19921;-79
2024/02/09 16:37:37;;;;;;;;;;;;;;;13.59;47.00;93912.25;10367969;28;19999;-81
2024/02/09 16:42:37;;;;;;;;;;;;;;;13.47;45.03;93929.00;10371243;28;19924;-79
2024/02/09 16:47:37;;;;;;;;;;;;;;;13.43;45.29;93930.75;10377907;28;19956;-80
2024/02/09 16:52:39;;;;;;;;;;;;;;;13.54;45.75;93935.88;10388062;28;20390;-78
2024/02/09 16:57:40;;;;;;;;;;;;;;;13.44;46.25;93929.63;10369258;28;20373;-80
2024/02/09 17:02:41;;;;;;;;;;;;;;;13.40;46.00;93936.75;10369004;28;19913;-80
2024/02/09 17:07:41;;;;;;;;;;;;;;;13.44;46.82;93937.75;10372266;28;20395;-78
2024/02/09 17:12:45;;;;;;;;;;;;;;;13.35;46.75;93945.00;10385393;28;21757;-79
2024/02/09 17:17:45;;;;;;;;;;;;;;;13.26;48.00;93950.31;10380498;28;19917;-79
2024/02/09 17:22:45;;;;;;;;;;;;;;;13.13;48.48;93945.78;10371129;28;20324;-80
2024/02/09 17:27:47;;;;;;;;;;;;;;;13.04;49.28;93942.25;10356578;28;19932;-78
2024/02/09 17:32:48;;;;;;;;;;;;;;;12.92;50.44;93948.19;10384727;28;20384;-94
2024/02/09 17:37:50;;;;;;;;;;;;;;;12.74;52.03;93948.09;10466046;23;19928;-79
2024/02/09 17:42:50;;;;;;;;;;;;;;;12.67;52.62;93953.13;10446194;28;19986;-80
2024/02/09 17:47:52;;;;;;;;;;;;;;;12.46;53.55;93941.97;10456162;28;20007;-86
2024/02/09 17:52:52;;;;;;;;;;;;;;;12.46;53.99;93941.97;10469945;28;19912;-82
2024/02/09 17:57:53;;;;;;;;;;;;;;;12.38;54.60;93950.81;10484368;28;19920;-82
2024/02/09 18:02:54;;;;;;;;;;;;;;;12.37;54.05;93944.59;10475130;28;20216;-79
2024/02/09 18:07:54;;;;;;;;;;;;;;;12.29;53.71;93937.25;10472652;28;19921;-82
2024/02/09 18:12:55;;;;;;;;;;;;;;;12.37;54.59;93944.59;10467002;28;20391;-82
2024/02/09 18:17:56;;;;;;;;;;;;;;;12.35;54.99;93949.50;10462559;28;19927;-80
2024/02/09 18:22:58;;;;;;;;;;;;;;;12.38;55.37;93951.59;10445538;28;19928;-79
2024/02/09 18:28:01;;;;;;;;;;;;;;;12.27;56.42;93940.25;10440120;28;19916;-80
2024/02/09 18:33:03;;;;;;;;;;;;;;;11.93;58.49;93946.03;10459472;28;19923;-84
2024/02/09 18:38:03;;;;;;;;;;;;;;;11.92;59.30;93949.84;10441752;28;19933;-74
2024/02/09 18:43:03;;;;;;;;;;;;;;;11.75;61.01;93951.25;10450490;28;19965;-75
2024/02/09 18:48:05;;;;;;;;;;;;;;;11.48;63.24;93957.41;10444921;28;19994;-75
2024/02/09 18:53:07;;;;;;;;;;;;;;;11.33;64.99;93950.44;10458272;28;19920;-76
2024/02/09 18:58:08;;;;;;;;;;;;;;;11.24;66.57;93950.31;10456166;28;20061;-78
2024/02/09 19:03:08;;;;;;;;;;;;;;;10.78;71.66;93954.56;10461346;28;19913;-76
2024/02/09 19:08:08;;;;;;;;;;;;;;;10.75;72.58;93973.19;10461428;28;19936;-77
2024/02/09 19:13:09;;;;;;;;;;;;;;;10.51;77.57;93976.75;10460300;28;19936;-82
2024/02/09 19:18:11;;;;;;;;;;;;;;;10.60;76.99;93953.53;10460953;28;19944;-83
2024/02/09 19:23:12;;;;;;;;;;;;;;;10.64;77.46;93969.84;10444419;28;19920;-82
2024/02/09 19:28:13;;;;;;;;;;;;;;;10.52;77.12;93981.06;10461355;28;19928;-78
2024/02/09 19:33:15;;;;;;;;;;;;;;;10.46;79.07;93987.56;10442080;28;20272;-77
2024/02/09 19:38:15;;;;;;;;;;;;;;;10.37;80.50;93983.97;10458625;28;20485;-76
2024/02/09 19:43:16;;;;;;;;;;;;;;;10.35;82.08;93988.81;10462618;28;20001;-76
2024/02/09 19:48:17;;;;;;;;;;;;;;;10.14;84.78;93994.41;10441275;28;20724;-82
2024/02/09 19:53:17;;;;;;;;;;;;;;;10.22;82.60;93976.88;10440467;28;19923;-80
2024/02/09 19:58:18;;;;;;;;;;;;;;;10.12;83.10;93968.94;10456472;28;20030;-78
2024/02/09 20:03:24;;;;;;;;;;;;;;;10.13;84.07;93965.16;10453511;28;19932;-76
2024/02/09 20:08:26;;;;;;;;;;;;;;;10.18;83.65;93962.44;10437572;28;20420;-77
2024/02/09 20:13:26;;;;;;;;;;;;;;;10.24;85.46;93974.69;10433972;28;19916;-77
2024/02/09 20:18:28;;;;;;;;;;;;;;;10.23;83.97;93965.84;10445354;28;19931;-78
2024/02/09 20:23:28;;;;;;;;;;;;;;;10.25;83.51;93960.97;10449447;28;19924;-77
2024/02/09 20:28:28;;;;;;;;;;;;;;;10.31;80.80;93969.78;10460196;28;19928;-82
2024/02/09 20:33:29;;;;;;;;;;;;;;;10.34;81.62;93971.06;10471200;28;19912;-80
2024/02/09 20:38:30;;;;;;;;;;;;;;;10.21;83.44;93961.84;10453617;28;20008;-83
2024/02/09 20:43:31;;;;;;;;;;;;;;;10.18;83.76;93962.44;10449318;28;19916;-81
2024/02/09 20:48:32;;;;;;;;;;;;;;;9.86;88.10;93980.81;10440624;28;19917;-81
2024/02/09 20:53:37;;;;;;;;;;;;;;;9.93;87.68;93972.41;10444289;28;19917;-83
2024/02/09 20:58:40;;;;;;;;;;;;;;;9.87;87.85;93977.03;10461552;28;19916;-82
2024/02/09 21:03:41;;;;;;;;;;;;;;;9.80;90.75;93975.81;10444220;28;20028;-80
2024/02/09 21:08:43;;;;;;;;;;;;;;;9.60;92.07;93983.00;10441064;28;20361;-83
2024/02/09 21:13:44;;;;;;;;;;;;;;;9.50;93.82;93977.72;10460858;28;19920;-81
2024/02/09 21:18:46;;;;;;;;;;;;;;;9.50;94.15;93962.44;10459263;28;20731;-83
2024/02/09 21:23:48;;;;;;;;;;;;;;;9.31;95.67;93967.75;10441422;28;19916;-84
2024/02/09 21:28:48;;;;;;;;;;;;;;;9.18;97.85;93968.41;10458279;28;19959;-81
2024/02/09 21:33:49;;;;;;;;;;;;;;;9.22;98.06;93977.47;10443266;28;20023;-79
2024/02/09 21:38:50;;;;;;;;;;;;;;;9.10;99.31;93969.81;10440573;28;19913;-82
2024/02/09 21:43:50;;;;;;;;;;;;;;;9.05;99.55;93978.69;10440128;28;19917;-77
2024/02/09 21:48:53;;;;;;;;;;;;;;;9.03;100.00;93970.16;10461183;28;20039;-77
2024/02/09 21:53:53;;;;;;;;;;;;;;;8.93;100.00;93978.28;10441211;28;19920;-82
2024/02/09 21:58:53;;;;;;;;;;;;;;;9.01;100.00;93976.88;10442484;28;19912;-84
2024/02/09 22:03:54;;;;;;;;;;;;;;;8.80;100.00;93986.97;10459379;28;19964;-81
2024/02/09 22:08:56;;;;;;;;;;;;;;;8.89;100.00;93963.84;10460859;28;19920;-81
2024/02/09 22:13:56;;;;;;;;;;;;;;;8.69;100.00;93970.16;10457660;28;19916;-78
2024/02/09 22:18:57;;;;;;;;;;;;;;;8.66;100.00;93970.72;10458156;28;19920;-76
2024/02/09 22:23:57;;;;;;;;;;;;;;;8.67;100.00;93970.44;10452353;28;19912;-82
2024/02/09 22:28:58;;;;;;;;;;;;;;;8.77;100.00;93974.91;10451526;28;19945;-80
2024/02/09 22:33:58;;;;;;;;;;;;;;;8.83;100.00;93967.63;10445002;28;19995;-82
2024/02/09 22:39:00;;;;;;;;;;;;;;;8.88;100.00;93956.88;10454907;28;19917;-77
2024/02/09 22:44:01;;;;;;;;;;;;;;;8.77;100.00;93966.09;10454512;28;19962;-76
2024/02/09 22:49:02;;;;;;;;;;;;;;;8.72;100.00;93978.44;10461379;28;19979;-79
2024/02/09 22:54:03;;;;;;;;;;;;;;;8.78;100.00;93986.44;10461393;28;19939;-82
2024/02/09 22:59:03;;;;;;;;;;;;;;;8.79;100.00;93975.44;10459100;28;19943;-79
2024/02/09 23:04:04;;;;;;;;;;;;;;;8.85;100.00;93981.56;10456442;28;20010;-81
2024/02/09 23:09:05;;;;;;;;;;;;;;;8.88;100.00;93992.50;10459744;28;19927;-80
2024/02/09 23:14:05;;;;;;;;;;;;;;;8.88;100.00;93994.41;10442448;28;19924;-76
2024/02/09 23:19:05;;;;;;;;;;;;;;;8.69;100.00;93975.50;10457522;28;19956;-80
2024/02/09 23:24:06;;;;;;;;;;;;;;;8.65;100.00;93983.31;10449592;28;19925;-78
2024/02/09 23:29:07;;;;;;;;;;;;;;;8.37;100.00;93990.16;10457867;28;19964;-80
2024/02/09 23:34:12;;;;;;;;;;;;;;;8.31;100.00;93994.75;10459035;28;20007;-80
2024/02/09 23:39:12;;;;;;;;;;;;;;;8.00;100.00;93978.84;10455610;28;19916;-80
2024/02/09 23:44:22;;;;;;;;;;;;;;;7.91;100.00;93993.91;10452762;28;20299;-82
2024/02/09 23:49:22;;;;;;;;;;;;;;;7.96;100.00;93977.81;10450586;28;19944;-80
2024/02/09 23:54:23;;;;;;;;;;;;;;;8.06;100.00;93979.63;10450287;28;19916;-81
2024/02/09 23:59:23;;;;;;;;;;;;;;;8.07;100.00;93991.16;10463399;28;20370;-81
